Portscatho, United Kingdom
Current Conditions -  °F | °C
As of 6:50 PM on Monday 20 Oct 2014 (Local Time) from EGDR Reporting Station
Overcast Overcast  
Wind Chill: 57°   Ceiling: 3500
Heat Index: 57°   Visibility: 6mi
Dew Point: 52°   Wind: 12mph
Humidity: 82%   Direction: 240°WSW
Pressure: 30"   Gusts: 23mph
Location:  50.17°N, 4.97°W
Report Text: EGDR 201750Z 24010G20KT 9999 FEW012 OVC035 14/11 Q1016 RESHRA BLU TEMPO 7000 -SHRA SCT009 BKN018TCU GRN
Loading
Personal Weather Stations






























Interactive Weather Map
Tropical Storm Tracking
New forecast layout! Learn more

10-Day Weather Forecast

Advertisements
Track Severe Weather on mobile